sensor_id;sensor_type;location;lat;lon;timestamp;P1;durP1;ratioP1;P2;durP2;ratioP2
23304;SDS011;11821;51.456;8.844;2022-07-11T00:02:26;10.27;;;5.53;;
23304;SDS011;11821;51.456;8.844;2022-07-11T00:04:52;7.97;;;5.00;;
23304;SDS011;11821;51.456;8.844;2022-07-11T00:07:19;6.03;;;5.53;;
23304;SDS011;11821;51.456;8.844;2022-07-11T00:09:46;7.10;;;5.72;;
23304;SDS011;11821;51.456;8.844;2022-07-11T00:12:13;6.45;;;5.85;;
23304;SDS011;11821;51.456;8.844;2022-07-11T00:14:39;9.00;;;6.15;;
23304;SDS011;11821;51.456;8.844;2022-07-11T00:17:06;8.25;;;6.25;;
23304;SDS011;11821;51.456;8.844;2022-07-11T00:19:37;9.65;;;6.40;;
23304;SDS011;11821;51.456;8.844;2022-07-11T00:22:04;6.82;;;5.88;;
23304;SDS011;11821;51.456;8.844;2022-07-11T00:24:31;7.95;;;5.80;;
23304;SDS011;11821;51.456;8.844;2022-07-11T00:26:58;7.97;;;6.43;;
23304;SDS011;11821;51.456;8.844;2022-07-11T00:29:24;7.30;;;6.65;;
23304;SDS011;11821;51.456;8.844;2022-07-11T00:31:51;8.73;;;6.10;;
23304;SDS011;11821;51.456;8.844;2022-07-11T00:34:18;8.48;;;6.40;;
23304;SDS011;11821;51.456;8.844;2022-07-11T00:36:44;9.10;;;7.05;;
23304;SDS011;11821;51.456;8.844;2022-07-11T00:39:10;9.18;;;7.05;;
23304;SDS011;11821;51.456;8.844;2022-07-11T00:41:37;9.18;;;7.28;;
23304;SDS011;11821;51.456;8.844;2022-07-11T00:44:03;8.20;;;7.40;;
23304;SDS011;11821;51.456;8.844;2022-07-11T00:46:29;11.38;;;7.95;;
23304;SDS011;11821;51.456;8.844;2022-07-11T00:48:57;7.40;;;6.57;;
23304;SDS011;11821;51.456;8.844;2022-07-11T00:51:24;5.93;;;5.43;;
23304;SDS011;11821;51.456;8.844;2022-07-11T00:53:53;11.05;;;8.02;;
23304;SDS011;11821;51.456;8.844;2022-07-11T00:56:22;10.00;;;8.40;;
23304;SDS011;11821;51.456;8.844;2022-07-11T00:58:50;12.85;;;8.13;;
23304;SDS011;11821;51.456;8.844;2022-07-11T01:01:17;11.88;;;7.85;;
23304;SDS011;11821;51.456;8.844;2022-07-11T01:03:44;11.38;;;7.93;;
23304;SDS011;11821;51.456;8.844;2022-07-11T01:06:11;10.35;;;7.90;;
23304;SDS011;11821;51.456;8.844;2022-07-11T01:08:38;8.85;;;8.00;;
23304;SDS011;11821;51.456;8.844;2022-07-11T01:11:07;7.45;;;6.75;;
23304;SDS011;11821;51.456;8.844;2022-07-11T01:13:44;9.70;;;7.60;;
23304;SDS011;11821;51.456;8.844;2022-07-11T01:16:21;9.85;;;7.55;;
23304;SDS011;11821;51.456;8.844;2022-07-11T01:18:49;7.93;;;7.22;;
23304;SDS011;11821;51.456;8.844;2022-07-11T01:21:23;8.57;;;7.72;;
23304;SDS011;11821;51.456;8.844;2022-07-11T01:24:00;9.50;;;8.20;;
23304;SDS011;11821;51.456;8.844;2022-07-11T01:26:27;8.13;;;6.65;;
23304;SDS011;11821;51.456;8.844;2022-07-11T01:28:55;7.18;;;6.50;;
23304;SDS011;11821;51.456;8.844;2022-07-11T01:31:29;10.23;;;6.97;;
23304;SDS011;11821;51.456;8.844;2022-07-11T01:33:56;7.55;;;6.72;;
23304;SDS011;11821;51.456;8.844;2022-07-11T01:36:23;9.32;;;6.95;;
23304;SDS011;11821;51.456;8.844;2022-07-11T01:38:50;8.40;;;7.60;;
23304;SDS011;11821;51.456;8.844;2022-07-11T01:41:16;7.80;;;7.00;;
23304;SDS011;11821;51.456;8.844;2022-07-11T01:43:42;7.25;;;6.60;;
23304;SDS011;11821;51.456;8.844;2022-07-11T01:46:09;8.75;;;7.30;;
23304;SDS011;11821;51.456;8.844;2022-07-11T01:48:35;7.57;;;6.72;;
23304;SDS011;11821;51.456;8.844;2022-07-11T01:51:01;8.63;;;7.25;;
23304;SDS011;11821;51.456;8.844;2022-07-11T01:53:27;9.57;;;8.20;;
23304;SDS011;11821;51.456;8.844;2022-07-11T01:55:54;10.50;;;8.68;;
23304;SDS011;11821;51.456;8.844;2022-07-11T01:58:20;14.05;;;7.20;;
23304;SDS011;11821;51.456;8.844;2022-07-11T02:00:46;11.77;;;7.13;;
23304;SDS011;11821;51.456;8.844;2022-07-11T02:03:13;8.30;;;7.50;;
23304;SDS011;11821;51.456;8.844;2022-07-11T02:05:39;14.85;;;8.50;;
23304;SDS011;11821;51.456;8.844;2022-07-11T02:08:06;10.30;;;7.05;;
23304;SDS011;11821;51.456;8.844;2022-07-11T02:10:40;9.88;;;5.18;;
23304;SDS011;11821;51.456;8.844;2022-07-11T02:13:14;6.45;;;5.78;;
23304;SDS011;11821;51.456;8.844;2022-07-11T02:15:42;2.17;;;2.03;;
23304;SDS011;11821;51.456;8.844;2022-07-11T02:18:10;5.10;;;4.60;;
23304;SDS011;11821;51.456;8.844;2022-07-11T02:20:38;9.82;;;4.57;;
23304;SDS011;11821;51.456;8.844;2022-07-11T02:23:06;6.55;;;4.88;;
23304;SDS011;11821;51.456;8.844;2022-07-11T02:25:33;4.70;;;4.28;;
23304;SDS011;11821;51.456;8.844;2022-07-11T02:28:03;4.63;;;4.10;;
23304;SDS011;11821;51.456;8.844;2022-07-11T02:30:30;6.55;;;4.13;;
23304;SDS011;11821;51.456;8.844;2022-07-11T02:32:56;3.78;;;3.05;;
23304;SDS011;11821;51.456;8.844;2022-07-11T02:35:23;4.55;;;4.10;;
23304;SDS011;11821;51.456;8.844;2022-07-11T02:37:49;4.57;;;4.18;;
23304;SDS011;11821;51.456;8.844;2022-07-11T02:40:15;4.10;;;3.47;;
23304;SDS011;11821;51.456;8.844;2022-07-11T02:42:42;4.60;;;4.20;;
23304;SDS011;11821;51.456;8.844;2022-07-11T02:45:08;4.68;;;4.18;;
23304;SDS011;11821;51.456;8.844;2022-07-11T02:47:36;4.18;;;3.65;;
23304;SDS011;11821;51.456;8.844;2022-07-11T02:50:06;4.65;;;4.28;;
23304;SDS011;11821;51.456;8.844;2022-07-11T02:52:34;4.40;;;4.10;;
23304;SDS011;11821;51.456;8.844;2022-07-11T02:55:01;3.72;;;3.40;;
23304;SDS011;11821;51.456;8.844;2022-07-11T02:57:28;6.15;;;3.92;;
23304;SDS011;11821;51.456;8.844;2022-07-11T02:59:54;3.90;;;3.60;;
23304;SDS011;11821;51.456;8.844;2022-07-11T03:02:21;3.83;;;3.42;;
23304;SDS011;11821;51.456;8.844;2022-07-11T03:04:47;4.00;;;3.70;;
23304;SDS011;11821;51.456;8.844;2022-07-11T03:07:13;4.00;;;3.70;;
23304;SDS011;11821;51.456;8.844;2022-07-11T03:09:40;5.00;;;3.72;;
23304;SDS011;11821;51.456;8.844;2022-07-11T03:12:06;3.40;;;3.17;;
23304;SDS011;11821;51.456;8.844;2022-07-11T03:14:33;2.92;;;2.72;;
23304;SDS011;11821;51.456;8.844;2022-07-11T03:16:59;3.03;;;2.83;;
23304;SDS011;11821;51.456;8.844;2022-07-11T03:19:25;3.45;;;3.17;;
23304;SDS011;11821;51.456;8.844;2022-07-11T03:21:52;3.17;;;2.95;;
23304;SDS011;11821;51.456;8.844;2022-07-11T03:24:18;1.05;;;1.02;;
23304;SDS011;11821;51.456;8.844;2022-07-11T03:26:44;2.67;;;2.42;;
23304;SDS011;11821;51.456;8.844;2022-07-11T03:29:10;3.20;;;2.75;;
23304;SDS011;11821;51.456;8.844;2022-07-11T03:31:37;2.63;;;2.42;;
23304;SDS011;11821;51.456;8.844;2022-07-11T03:34:03;3.38;;;3.08;;
23304;SDS011;11821;51.456;8.844;2022-07-11T03:36:29;2.88;;;2.67;;
23304;SDS011;11821;51.456;8.844;2022-07-11T03:38:56;3.55;;;2.20;;
23304;SDS011;11821;51.456;8.844;2022-07-11T03:41:22;2.00;;;1.90;;
23304;SDS011;11821;51.456;8.844;2022-07-11T03:43:48;2.17;;;1.98;;
23304;SDS011;11821;51.456;8.844;2022-07-11T03:46:14;3.00;;;2.22;;
23304;SDS011;11821;51.456;8.844;2022-07-11T03:48:41;1.55;;;1.13;;
23304;SDS011;11821;51.456;8.844;2022-07-11T03:51:07;1.80;;;1.70;;
23304;SDS011;11821;51.456;8.844;2022-07-11T03:53:34;1.92;;;1.73;;
23304;SDS011;11821;51.456;8.844;2022-07-11T03:56:00;3.28;;;1.83;;
23304;SDS011;11821;51.456;8.844;2022-07-11T03:58:26;1.80;;;1.70;;
23304;SDS011;11821;51.456;8.844;2022-07-11T04:00:52;1.92;;;1.83;;
23304;SDS011;11821;51.456;8.844;2022-07-11T04:03:19;1.08;;;0.65;;
23304;SDS011;11821;51.456;8.844;2022-07-11T04:05:45;5.40;;;1.50;;
23304;SDS011;11821;51.456;8.844;2022-07-11T04:08:11;2.00;;;1.77;;
23304;SDS011;11821;51.456;8.844;2022-07-11T04:10:37;1.60;;;1.50;;
23304;SDS011;11821;51.456;8.844;2022-07-11T04:13:04;2.38;;;1.60;;
23304;SDS011;11821;51.456;8.844;2022-07-11T04:15:30;1.35;;;1.25;;
23304;SDS011;11821;51.456;8.844;2022-07-11T04:17:59;1.58;;;1.48;;
23304;SDS011;11821;51.456;8.844;2022-07-11T04:20:26;2.00;;;1.90;;
23304;SDS011;11821;51.456;8.844;2022-07-11T04:22:52;2.10;;;1.90;;
23304;SDS011;11821;51.456;8.844;2022-07-11T04:25:18;2.97;;;1.83;;
23304;SDS011;11821;51.456;8.844;2022-07-11T04:27:45;4.47;;;1.80;;
23304;SDS011;11821;51.456;8.844;2022-07-11T04:30:11;3.75;;;2.00;;
23304;SDS011;11821;51.456;8.844;2022-07-11T04:32:37;1.77;;;1.67;;
23304;SDS011;11821;51.456;8.844;2022-07-11T04:35:04;2.75;;;2.20;;
23304;SDS011;11821;51.456;8.844;2022-07-11T04:37:30;2.05;;;1.85;;
23304;SDS011;11821;51.456;8.844;2022-07-11T04:39:57;1.60;;;1.50;;
23304;SDS011;11821;51.456;8.844;2022-07-11T04:42:23;2.22;;;2.03;;
23304;SDS011;11821;51.456;8.844;2022-07-11T04:44:49;2.10;;;1.92;;
23304;SDS011;11821;51.456;8.844;2022-07-11T04:47:15;2.13;;;2.00;;
23304;SDS011;11821;51.456;8.844;2022-07-11T04:49:41;3.10;;;2.10;;
23304;SDS011;11821;51.456;8.844;2022-07-11T04:52:12;4.18;;;2.20;;
23304;SDS011;11821;51.456;8.844;2022-07-11T04:54:39;1.85;;;1.67;;
23304;SDS011;11821;51.456;8.844;2022-07-11T04:57:06;2.00;;;1.80;;
23304;SDS011;11821;51.456;8.844;2022-07-11T04:59:32;2.33;;;2.20;;
23304;SDS011;11821;51.456;8.844;2022-07-11T05:01:58;2.50;;;2.35;;
23304;SDS011;11821;51.456;8.844;2022-07-11T05:04:24;3.42;;;3.15;;
23304;SDS011;11821;51.456;8.844;2022-07-11T05:06:51;3.80;;;3.38;;
23304;SDS011;11821;51.456;8.844;2022-07-11T05:09:17;6.07;;;2.70;;
23304;SDS011;11821;51.456;8.844;2022-07-11T05:11:43;4.60;;;3.28;;
23304;SDS011;11821;51.456;8.844;2022-07-11T05:14:10;4.63;;;3.60;;
23304;SDS011;11821;51.456;8.844;2022-07-11T05:16:36;5.30;;;3.85;;
23304;SDS011;11821;51.456;8.844;2022-07-11T05:19:03;4.85;;;4.32;;
23304;SDS011;11821;51.456;8.844;2022-07-11T05:21:29;5.72;;;5.13;;
23304;SDS011;11821;51.456;8.844;2022-07-11T05:23:56;5.38;;;4.82;;
23304;SDS011;11821;51.456;8.844;2022-07-11T05:26:22;5.22;;;4.72;;
23304;SDS011;11821;51.456;8.844;2022-07-11T05:28:48;6.88;;;6.18;;
23304;SDS011;11821;51.456;8.844;2022-07-11T05:31:14;6.82;;;6.18;;
23304;SDS011;11821;51.456;8.844;2022-07-11T05:33:41;8.00;;;7.20;;
23304;SDS011;11821;51.456;8.844;2022-07-11T05:36:07;10.65;;;8.68;;
23304;SDS011;11821;51.456;8.844;2022-07-11T05:38:34;12.40;;;9.60;;
23304;SDS011;11821;51.456;8.844;2022-07-11T05:41:00;15.13;;;10.48;;
23304;SDS011;11821;51.456;8.844;2022-07-11T05:43:26;11.40;;;9.07;;
23304;SDS011;11821;51.456;8.844;2022-07-11T05:45:53;10.52;;;9.25;;
23304;SDS011;11821;51.456;8.844;2022-07-11T05:48:19;13.75;;;10.30;;
23304;SDS011;11821;51.456;8.844;2022-07-11T05:50:45;12.63;;;11.43;;
23304;SDS011;11821;51.456;8.844;2022-07-11T05:53:12;10.30;;;9.25;;
23304;SDS011;11821;51.456;8.844;2022-07-11T05:55:38;13.32;;;11.65;;
23304;SDS011;11821;51.456;8.844;2022-07-11T05:58:05;9.82;;;8.35;;
23304;SDS011;11821;51.456;8.844;2022-07-11T06:00:31;12.80;;;11.25;;
23304;SDS011;11821;51.456;8.844;2022-07-11T06:02:57;11.70;;;8.57;;
23304;SDS011;11821;51.456;8.844;2022-07-11T06:05:23;9.43;;;8.60;;
23304;SDS011;11821;51.456;8.844;2022-07-11T06:07:49;13.50;;;10.13;;
23304;SDS011;11821;51.456;8.844;2022-07-11T06:10:34;12.43;;;11.02;;
23304;SDS011;11821;51.456;8.844;2022-07-11T06:13:00;11.52;;;9.07;;
23304;SDS011;11821;51.456;8.844;2022-07-11T06:15:27;11.73;;;9.63;;
23304;SDS011;11821;51.456;8.844;2022-07-11T06:17:53;8.50;;;7.57;;
23304;SDS011;11821;51.456;8.844;2022-07-11T06:20:20;11.02;;;9.75;;
23304;SDS011;11821;51.456;8.844;2022-07-11T06:22:46;11.65;;;10.52;;
23304;SDS011;11821;51.456;8.844;2022-07-11T06:25:12;10.30;;;9.35;;
23304;SDS011;11821;51.456;8.844;2022-07-11T06:27:38;11.43;;;10.13;;
23304;SDS011;11821;51.456;8.844;2022-07-11T06:30:05;11.38;;;10.18;;
23304;SDS011;11821;51.456;8.844;2022-07-11T06:32:31;11.32;;;10.10;;
23304;SDS011;11821;51.456;8.844;2022-07-11T06:34:58;14.77;;;10.30;;
23304;SDS011;11821;51.456;8.844;2022-07-11T06:37:24;10.40;;;9.40;;
23304;SDS011;11821;51.456;8.844;2022-07-11T06:39:50;9.63;;;8.60;;
23304;SDS011;11821;51.456;8.844;2022-07-11T06:42:17;8.73;;;7.50;;
23304;SDS011;11821;51.456;8.844;2022-07-11T06:44:43;9.00;;;7.70;;
23304;SDS011;11821;51.456;8.844;2022-07-11T06:47:09;7.88;;;6.95;;
23304;SDS011;11821;51.456;8.844;2022-07-11T06:49:35;7.90;;;7.13;;
23304;SDS011;11821;51.456;8.844;2022-07-11T06:52:02;6.75;;;6.05;;
23304;SDS011;11821;51.456;8.844;2022-07-11T06:54:28;7.32;;;6.18;;
23304;SDS011;11821;51.456;8.844;2022-07-11T06:56:54;3.00;;;2.55;;
23304;SDS011;11821;51.456;8.844;2022-07-11T06:59:21;8.48;;;6.22;;
23304;SDS011;11821;51.456;8.844;2022-07-11T07:01:47;6.15;;;5.60;;
23304;SDS011;11821;51.456;8.844;2022-07-11T07:04:13;5.28;;;4.68;;
23304;SDS011;11821;51.456;8.844;2022-07-11T07:06:40;6.00;;;5.03;;
23304;SDS011;11821;51.456;8.844;2022-07-11T07:09:06;5.93;;;2.83;;
23304;SDS011;11821;51.456;8.844;2022-07-11T07:11:32;7.85;;;5.03;;
23304;SDS011;11821;51.456;8.844;2022-07-11T07:13:59;5.53;;;5.03;;
23304;SDS011;11821;51.456;8.844;2022-07-11T07:16:25;5.60;;;4.78;;
23304;SDS011;11821;51.456;8.844;2022-07-11T07:18:51;5.45;;;4.68;;
23304;SDS011;11821;51.456;8.844;2022-07-11T07:21:17;3.65;;;3.35;;
23304;SDS011;11821;51.456;8.844;2022-07-11T07:23:44;4.65;;;4.10;;
23304;SDS011;11821;51.456;8.844;2022-07-11T07:26:10;6.05;;;4.55;;
23304;SDS011;11821;51.456;8.844;2022-07-11T07:28:36;6.63;;;4.50;;
23304;SDS011;11821;51.456;8.844;2022-07-11T07:31:03;6.75;;;4.72;;
23304;SDS011;11821;51.456;8.844;2022-07-11T07:33:30;5.32;;;4.53;;
23304;SDS011;11821;51.456;8.844;2022-07-11T07:35:56;6.68;;;4.70;;
23304;SDS011;11821;51.456;8.844;2022-07-11T07:38:22;7.22;;;4.60;;
23304;SDS011;11821;51.456;8.844;2022-07-11T07:40:49;4.43;;;4.03;;
23304;SDS011;11821;51.456;8.844;2022-07-11T07:43:15;4.10;;;2.97;;
23304;SDS011;11821;51.456;8.844;2022-07-11T07:45:41;4.72;;;4.28;;
23304;SDS011;11821;51.456;8.844;2022-07-11T07:48:07;5.15;;;3.95;;
23304;SDS011;11821;51.456;8.844;2022-07-11T07:50:34;4.15;;;3.80;;
23304;SDS011;11821;51.456;8.844;2022-07-11T07:53:00;4.35;;;3.95;;
23304;SDS011;11821;51.456;8.844;2022-07-11T07:55:26;4.60;;;4.25;;
23304;SDS011;11821;51.456;8.844;2022-07-11T07:57:52;3.55;;;3.35;;
23304;SDS011;11821;51.456;8.844;2022-07-11T08:00:19;5.28;;;4.28;;
23304;SDS011;11821;51.456;8.844;2022-07-11T08:03:07;6.05;;;4.35;;
23304;SDS011;11821;51.456;8.844;2022-07-11T08:05:36;5.78;;;4.13;;
23304;SDS011;11821;51.456;8.844;2022-07-11T08:08:03;5.00;;;3.85;;
23304;SDS011;11821;51.456;8.844;2022-07-11T08:10:29;3.67;;;3.17;;
23304;SDS011;11821;51.456;8.844;2022-07-11T08:12:56;3.45;;;3.20;;
23304;SDS011;11821;51.456;8.844;2022-07-11T08:15:22;5.75;;;3.47;;
23304;SDS011;11821;51.456;8.844;2022-07-11T08:17:49;5.07;;;3.60;;
23304;SDS011;11821;51.456;8.844;2022-07-11T08:20:15;3.95;;;3.47;;
23304;SDS011;11821;51.456;8.844;2022-07-11T08:22:41;3.72;;;3.05;;
23304;SDS011;11821;51.456;8.844;2022-07-11T08:25:08;3.58;;;2.80;;
23304;SDS011;11821;51.456;8.844;2022-07-11T08:27:34;2.08;;;1.98;;
23304;SDS011;11821;51.456;8.844;2022-07-11T08:30:01;2.38;;;1.63;;
23304;SDS011;11821;51.456;8.844;2022-07-11T08:32:28;2.88;;;2.22;;
23304;SDS011;11821;51.456;8.844;2022-07-11T08:34:55;2.53;;;1.92;;
23304;SDS011;11821;51.456;8.844;2022-07-11T08:37:21;2.05;;;1.50;;
23304;SDS011;11821;51.456;8.844;2022-07-11T08:39:47;2.00;;;1.65;;
23304;SDS011;11821;51.456;8.844;2022-07-11T08:42:15;2.35;;;1.38;;
23304;SDS011;11821;51.456;8.844;2022-07-11T08:44:45;1.73;;;1.60;;
23304;SDS011;11821;51.456;8.844;2022-07-11T08:47:11;8.63;;;2.05;;
23304;SDS011;11821;51.456;8.844;2022-07-11T08:49:38;1.65;;;1.40;;
23304;SDS011;11821;51.456;8.844;2022-07-11T08:52:05;1.83;;;1.50;;
23304;SDS011;11821;51.456;8.844;2022-07-11T08:54:33;1.40;;;1.30;;
23304;SDS011;11821;51.456;8.844;2022-07-11T08:57:00;5.93;;;1.70;;
23304;SDS011;11821;51.456;8.844;2022-07-11T08:59:28;4.63;;;1.83;;
23304;SDS011;11821;51.456;8.844;2022-07-11T09:01:59;1.75;;;1.42;;
23304;SDS011;11821;51.456;8.844;2022-07-11T09:04:28;2.72;;;1.75;;
23304;SDS011;11821;51.456;8.844;2022-07-11T09:06:56;1.75;;;1.25;;
23304;SDS011;11821;51.456;8.844;2022-07-11T09:09:25;1.63;;;1.13;;
23304;SDS011;11821;51.456;8.844;2022-07-11T09:11:53;1.10;;;1.00;;
23304;SDS011;11821;51.456;8.844;2022-07-11T09:14:26;1.45;;;1.20;;
23304;SDS011;11821;51.456;8.844;2022-07-11T09:19:28;1.83;;;1.25;;
23304;SDS011;11821;51.456;8.844;2022-07-11T09:22:03;1.00;;;1.00;;
23304;SDS011;11821;51.456;8.844;2022-07-11T09:25:06;1.13;;;1.02;;
23304;SDS011;11821;51.456;8.844;2022-07-11T09:28:06;2.60;;;1.25;;
23304;SDS011;11821;51.456;8.844;2022-07-11T09:30:34;2.10;;;1.25;;
23304;SDS011;11821;51.456;8.844;2022-07-11T09:33:10;1.10;;;1.00;;
23304;SDS011;11821;51.456;8.844;2022-07-11T09:35:38;2.15;;;1.17;;
23304;SDS011;11821;51.456;8.844;2022-07-11T09:38:07;1.40;;;1.30;;
23304;SDS011;11821;51.456;8.844;2022-07-11T09:40:35;1.40;;;1.30;;
23304;SDS011;11821;51.456;8.844;2022-07-11T09:43:03;1.45;;;1.35;;
23304;SDS011;11821;51.456;8.844;2022-07-11T09:45:31;2.75;;;1.77;;
23304;SDS011;11821;51.456;8.844;2022-07-11T09:47:59;3.05;;;1.40;;
23304;SDS011;11821;51.456;8.844;2022-07-11T09:50:28;1.30;;;1.20;;
23304;SDS011;11821;51.456;8.844;2022-07-11T09:53:02;1.48;;;1.38;;
23304;SDS011;11821;51.456;8.844;2022-07-11T09:55:29;1.83;;;1.73;;
23304;SDS011;11821;51.456;8.844;2022-07-11T09:58:04;2.40;;;2.20;;
23304;SDS011;11821;51.456;8.844;2022-07-11T10:00:34;3.58;;;2.20;;
23304;SDS011;11821;51.456;8.844;2022-07-11T10:03:02;2.25;;;1.90;;
23304;SDS011;11821;51.456;8.844;2022-07-11T10:05:29;2.10;;;1.42;;
23304;SDS011;11821;51.456;8.844;2022-07-11T10:07:59;1.60;;;1.50;;
23304;SDS011;11821;51.456;8.844;2022-07-11T10:10:26;2.33;;;1.65;;
23304;SDS011;11821;51.456;8.844;2022-07-11T10:12:54;3.00;;;2.03;;
23304;SDS011;11821;51.456;8.844;2022-07-11T10:15:28;3.05;;;1.40;;
23304;SDS011;11821;51.456;8.844;2022-07-11T10:18:28;2.05;;;1.60;;
23304;SDS011;11821;51.456;8.844;2022-07-11T10:20:56;1.75;;;1.52;;
23304;SDS011;11821;51.456;8.844;2022-07-11T10:29:45;1.45;;;1.35;;
23304;SDS011;11821;51.456;8.844;2022-07-11T10:32:13;2.10;;;1.20;;
23304;SDS011;11821;51.456;8.844;2022-07-11T10:34:39;2.15;;;1.30;;
23304;SDS011;11821;51.456;8.844;2022-07-11T10:37:06;4.30;;;1.73;;
23304;SDS011;11821;51.456;8.844;2022-07-11T10:39:34;3.78;;;1.60;;
23304;SDS011;11821;51.456;8.844;2022-07-11T10:42:02;3.28;;;1.90;;
23304;SDS011;11821;51.456;8.844;2022-07-11T10:44:50;2.05;;;1.55;;
23304;SDS011;11821;51.456;8.844;2022-07-11T10:50:02;2.72;;;1.70;;
23304;SDS011;11821;51.456;8.844;2022-07-11T10:52:41;1.42;;;1.33;;
23304;SDS011;11821;51.456;8.844;2022-07-11T10:58:19;4.25;;;1.80;;
23304;SDS011;11821;51.456;8.844;2022-07-11T11:03:38;2.55;;;1.70;;
23304;SDS011;11821;51.456;8.844;2022-07-11T11:06:05;1.77;;;1.65;;
23304;SDS011;11821;51.456;8.844;2022-07-11T11:11:05;2.10;;;1.90;;
23304;SDS011;11821;51.456;8.844;2022-07-11T11:13:33;3.53;;;1.80;;
23304;SDS011;11821;51.456;8.844;2022-07-11T11:16:01;1.70;;;1.60;;
23304;SDS011;11821;51.456;8.844;2022-07-11T11:18:43;1.50;;;1.40;;
23304;SDS011;11821;51.456;8.844;2022-07-11T11:21:13;3.08;;;1.30;;
23304;SDS011;11821;51.456;8.844;2022-07-11T11:23:45;1.45;;;1.23;;
23304;SDS011;11821;51.456;8.844;2022-07-11T11:26:44;1.90;;;1.48;;
23304;SDS011;11821;51.456;8.844;2022-07-11T11:29:11;1.85;;;1.10;;
23304;SDS011;11821;51.456;8.844;2022-07-11T11:31:47;2.75;;;1.20;;
23304;SDS011;11821;51.456;8.844;2022-07-11T11:34:24;1.20;;;1.10;;
23304;SDS011;11821;51.456;8.844;2022-07-11T11:36:52;1.80;;;1.67;;
23304;SDS011;11821;51.456;8.844;2022-07-11T11:39:25;1.48;;;1.30;;
23304;SDS011;11821;51.456;8.844;2022-07-11T11:42:05;1.80;;;1.38;;
23304;SDS011;11821;51.456;8.844;2022-07-11T11:44:34;1.73;;;1.63;;
23304;SDS011;11821;51.456;8.844;2022-07-11T11:47:12;2.22;;;1.55;;
23304;SDS011;11821;51.456;8.844;2022-07-11T11:49:42;1.98;;;1.55;;
23304;SDS011;11821;51.456;8.844;2022-07-11T11:52:10;1.42;;;1.33;;
23304;SDS011;11821;51.456;8.844;2022-07-11T11:54:37;1.48;;;1.38;;
23304;SDS011;11821;51.456;8.844;2022-07-11T11:57:05;1.80;;;1.38;;
23304;SDS011;11821;51.456;8.844;2022-07-11T11:59:33;1.70;;;1.40;;
23304;SDS011;11821;51.456;8.844;2022-07-11T12:01:59;1.75;;;1.65;;
23304;SDS011;11821;51.456;8.844;2022-07-11T12:04:29;1.90;;;1.80;;
23304;SDS011;11821;51.456;8.844;2022-07-11T12:06:58;2.10;;;1.60;;
23304;SDS011;11821;51.456;8.844;2022-07-11T12:09:26;1.40;;;1.30;;
23304;SDS011;11821;51.456;8.844;2022-07-11T12:12:12;1.60;;;1.48;;
23304;SDS011;11821;51.456;8.844;2022-07-11T12:15:01;2.55;;;1.70;;
23304;SDS011;11821;51.456;8.844;2022-07-11T12:17:27;1.92;;;1.50;;
23304;SDS011;11821;51.456;8.844;2022-07-11T12:19:57;3.35;;;1.95;;
23304;SDS011;11821;51.456;8.844;2022-07-11T12:22:23;1.52;;;1.42;;
23304;SDS011;11821;51.456;8.844;2022-07-11T12:24:51;2.55;;;1.60;;
23304;SDS011;11821;51.456;8.844;2022-07-11T12:27:19;1.70;;;1.40;;
23304;SDS011;11821;51.456;8.844;2022-07-11T12:29:47;3.92;;;1.50;;
23304;SDS011;11821;51.456;8.844;2022-07-11T12:32:17;1.70;;;1.60;;
23304;SDS011;11821;51.456;8.844;2022-07-11T12:34:45;1.58;;;1.48;;
23304;SDS011;11821;51.456;8.844;2022-07-11T12:37:13;1.98;;;1.67;;
23304;SDS011;11821;51.456;8.844;2022-07-11T12:39:52;1.50;;;1.30;;
23304;SDS011;11821;51.456;8.844;2022-07-11T12:47:24;1.45;;;1.33;;
23304;SDS011;11821;51.456;8.844;2022-07-11T12:49:55;2.08;;;1.80;;
23304;SDS011;11821;51.456;8.844;2022-07-11T12:52:22;1.85;;;1.75;;
23304;SDS011;11821;51.456;8.844;2022-07-11T12:54:48;2.20;;;1.80;;
23304;SDS011;11821;51.456;8.844;2022-07-11T12:57:16;2.20;;;1.55;;
23304;SDS011;11821;51.456;8.844;2022-07-11T12:59:46;3.03;;;1.48;;
23304;SDS011;11821;51.456;8.844;2022-07-11T13:02:12;1.92;;;1.80;;
23304;SDS011;11821;51.456;8.844;2022-07-11T13:07:30;2.20;;;2.10;;
23304;SDS011;11821;51.456;8.844;2022-07-11T13:10:17;2.20;;;2.00;;
23304;SDS011;11821;51.456;8.844;2022-07-11T13:12:45;2.33;;;1.88;;
23304;SDS011;11821;51.456;8.844;2022-07-11T13:15:12;1.98;;;1.88;;
23304;SDS011;11821;51.456;8.844;2022-07-11T13:17:43;1.80;;;1.70;;
23304;SDS011;11821;51.456;8.844;2022-07-11T13:20:27;2.17;;;1.98;;
23304;SDS011;11821;51.456;8.844;2022-07-11T13:22:54;1.90;;;1.80;;
23304;SDS011;11821;51.456;8.844;2022-07-11T13:25:21;1.73;;;1.63;;
23304;SDS011;11821;51.456;8.844;2022-07-11T13:27:49;2.25;;;2.05;;
23304;SDS011;11821;51.456;8.844;2022-07-11T13:30:16;1.52;;;1.42;;
23304;SDS011;11821;51.456;8.844;2022-07-11T13:32:46;2.38;;;1.80;;
23304;SDS011;11821;51.456;8.844;2022-07-11T13:35:13;2.10;;;1.80;;
23304;SDS011;11821;51.456;8.844;2022-07-11T13:37:41;1.63;;;1.52;;
23304;SDS011;11821;51.456;8.844;2022-07-11T13:40:08;2.22;;;1.70;;
23304;SDS011;11821;51.456;8.844;2022-07-11T13:42:37;1.98;;;1.80;;
23304;SDS011;11821;51.456;8.844;2022-07-11T13:45:05;2.00;;;1.90;;
23304;SDS011;11821;51.456;8.844;2022-07-11T13:47:33;2.10;;;2.00;;
23304;SDS011;11821;51.456;8.844;2022-07-11T13:49:59;2.95;;;2.25;;
23304;SDS011;11821;51.456;8.844;2022-07-11T13:52:27;2.75;;;2.55;;
23304;SDS011;11821;51.456;8.844;2022-07-11T13:54:54;3.05;;;2.05;;
23304;SDS011;11821;51.456;8.844;2022-07-11T13:57:20;2.58;;;2.38;;
23304;SDS011;11821;51.456;8.844;2022-07-11T13:59:47;2.60;;;2.30;;
23304;SDS011;11821;51.456;8.844;2022-07-11T14:02:14;5.78;;;2.45;;
23304;SDS011;11821;51.456;8.844;2022-07-11T14:04:41;3.35;;;3.05;;
23304;SDS011;11821;51.456;8.844;2022-07-11T14:07:08;3.25;;;2.95;;
23304;SDS011;11821;51.456;8.844;2022-07-11T14:09:34;3.10;;;2.83;;
23304;SDS011;11821;51.456;8.844;2022-07-11T14:12:01;3.30;;;3.00;;
23304;SDS011;11821;51.456;8.844;2022-07-11T14:14:27;2.95;;;2.67;;
23304;SDS011;11821;51.456;8.844;2022-07-11T14:16:54;3.08;;;2.55;;
23304;SDS011;11821;51.456;8.844;2022-07-11T14:19:21;2.75;;;2.42;;
23304;SDS011;11821;51.456;8.844;2022-07-11T14:21:47;3.22;;;2.80;;
23304;SDS011;11821;51.456;8.844;2022-07-11T14:24:14;4.00;;;2.63;;
23304;SDS011;11821;51.456;8.844;2022-07-11T14:26:41;3.25;;;2.97;;
23304;SDS011;11821;51.456;8.844;2022-07-11T14:29:07;2.83;;;2.63;;
23304;SDS011;11821;51.456;8.844;2022-07-11T14:31:34;3.15;;;2.72;;
23304;SDS011;11821;51.456;8.844;2022-07-11T14:34:00;3.30;;;3.00;;
23304;SDS011;11821;51.456;8.844;2022-07-11T14:36:26;3.20;;;2.90;;
23304;SDS011;11821;51.456;8.844;2022-07-11T14:38:53;3.08;;;2.88;;
23304;SDS011;11821;51.456;8.844;2022-07-11T14:41:19;2.88;;;2.67;;
23304;SDS011;11821;51.456;8.844;2022-07-11T14:43:47;3.17;;;2.97;;
23304;SDS011;11821;51.456;8.844;2022-07-11T14:46:14;2.75;;;2.33;;
23304;SDS011;11821;51.456;8.844;2022-07-11T14:48:42;3.25;;;2.95;;
23304;SDS011;11821;51.456;8.844;2022-07-11T14:51:09;4.00;;;2.92;;
23304;SDS011;11821;51.456;8.844;2022-07-11T14:53:36;3.05;;;2.58;;
23304;SDS011;11821;51.456;8.844;2022-07-11T14:56:02;2.03;;;1.92;;
23304;SDS011;11821;51.456;8.844;2022-07-11T14:58:29;3.38;;;3.17;;
23304;SDS011;11821;51.456;8.844;2022-07-11T15:00:55;3.05;;;2.85;;
23304;SDS011;11821;51.456;8.844;2022-07-11T15:03:21;3.97;;;2.92;;
23304;SDS011;11821;51.456;8.844;2022-07-11T15:06:03;2.53;;;2.33;;
23304;SDS011;11821;51.456;8.844;2022-07-11T15:08:34;2.05;;;1.95;;
23304;SDS011;11821;51.456;8.844;2022-07-11T15:11:20;2.45;;;2.25;;
23304;SDS011;11821;51.456;8.844;2022-07-11T15:14:05;3.25;;;3.05;;
23304;SDS011;11821;51.456;8.844;2022-07-11T15:16:32;4.10;;;2.38;;
23304;SDS011;11821;51.456;8.844;2022-07-11T15:18:59;3.28;;;3.05;;
23304;SDS011;11821;51.456;8.844;2022-07-11T15:21:27;2.92;;;2.72;;